| Date | Time | Temp. (oF) | Dew Point (oF) | Rel. Hum. (%) | Press. (in.) | Wind Dir. | Wind Speed (mph) | Hourly Rainfall (in.) |
|
|---|---|---|---|---|---|---|---|---|---|
| 1 | 02/04 | 00:00 | 26 | 22 | 87 | 29.91 | NNW | 0 | 0.00 |
| 2 | 02/03 | 23:00 | 28 | 23 | 83 | 29.93 | NNW | 0 | 0.00 |
| 3 | 02/03 | 22:00 | 30 | 24 | 80 | 29.95 | SSW | 0 | 0.00 |
| 4 | 02/03 | 21:00 | 33 | 24 | 71 | 29.97 | SSW | 0 | 0.00 |
| 5 | 02/03 | 20:00 | 36 | 24 | 62 | 29.98 | S | 2 | 0.00 |
| 6 | 02/03 | 19:00 | 38 | 24 | 57 | 29.99 | S | 4 | 0.00 |
| 7 | 02/03 | 18:00 | 39 | 23 | 54 | 29.99 | SSW | 3 | 0.00 |
| 8 | 02/03 | 17:00 | 40 | 23 | 51 | 29.99 | S | 11 | 0.00 |
| 9 | 02/03 | 16:00 | 41 | 24 | 52 | 30.01 | S | 4 | 0.00 |
| 10 | 02/03 | 15:00 | 41 | 25 | 54 | 30.04 | SSE | 8 | 0.00 |
| 11 | 02/03 | 14:00 | 40 | 25 | 57 | 30.06 | S | 10 | 0.00 |
| 12 | 02/03 | 13:00 | 40 | 24 | 53 | 30.10 | S | 7 | 0.00 |
| 13 | 02/03 | 12:00 | 39 | 23 | 54 | 30.16 | S | 16 | 0.00 |
| 14 | 02/03 | 11:00 | 38 | 22 | 53 | 30.20 | SSW | 11 | 0.00 |
| 15 | 02/03 | 10:00 | 36 | 23 | 61 | 30.23 | SSW | 9 | 0.00 |
| 16 | 02/03 | 09:00 | 30 | 22 | 72 | 30.26 | S | 3 | 0.00 |
| 17 | 02/03 | 08:00 | 23 | 22 | 97 | 30.27 | S | 4 | 0.00 |
| 18 | 02/03 | 07:00 | 22 | 21 | 96 | 30.28 | SSE | 0 | 0.00 |
| 19 | 02/03 | 06:00 | 22 | 20 | 95 | 30.30 | N | 0 | 0.00 |
| 20 | 02/03 | 05:00 | 22 | 20 | 94 | 30.31 | SSW | 0 | 0.00 |
| 21 | 02/03 | 04:00 | 22 | 20 | 92 | 30.33 | SSW | 0 | 0.00 |
| 22 | 02/03 | 03:00 | 23 | 20 | 90 | 30.34 | S | 0 | 0.00 |
| 23 | 02/03 | 02:00 | 25 | 21 | 88 | 30.34 | S | 0 | 0.00 |
| 24 | 02/03 | 01:00 | 26 | 22 | 85 | 30.37 | S | 0 | 0.00 |